NCAR-RAP Real-Time Weather Data

Output produced by METARs form (10 April 2020  07:13 UTC)
found at http://weather.rap.ucar.edu/surface/
 
KILG 100651Z AUTO 30016G22KT 10SM CLR 05/M03 A2950 RMK AO2 PK WND 29029/0623 SLP988 T00501033 $